createdAt,value
2019-03-27T00:00:47.387Z,4.90
2019-03-27T00:03:32.959Z,4.90
2019-03-27T00:06:18.587Z,4.80
2019-03-27T00:09:04.638Z,4.80
2019-03-27T00:11:50.509Z,4.80
2019-03-27T00:14:36.006Z,4.80
2019-03-27T00:17:21.590Z,4.80
2019-03-27T00:20:06.637Z,4.90
2019-03-27T00:22:52.606Z,4.90
2019-03-27T00:25:37.551Z,4.90
2019-03-27T00:28:22.898Z,4.90
2019-03-27T00:31:11.702Z,4.80
2019-03-27T00:33:56.647Z,4.80
2019-03-27T00:36:42.835Z,4.80
2019-03-27T00:39:28.339Z,4.90
2019-03-27T00:42:13.711Z,4.90
2019-03-27T00:44:59.227Z,4.90
2019-03-27T00:47:44.870Z,4.80
2019-03-27T00:50:30.617Z,4.80
2019-03-27T00:53:16.215Z,4.80
2019-03-27T00:56:01.866Z,4.80
2019-03-27T00:58:47.367Z,4.80
2019-03-27T01:01:33.086Z,4.80
2019-03-27T01:04:18.391Z,4.70
2019-03-27T01:07:04.172Z,4.70
2019-03-27T01:09:49.226Z,4.80
2019-03-27T01:12:34.827Z,4.80
2019-03-27T01:15:20.386Z,4.80
2019-03-27T01:18:05.754Z,4.80
2019-03-27T01:20:51.454Z,4.80
2019-03-27T01:23:36.841Z,4.80
2019-03-27T01:26:22.333Z,4.80
2019-03-27T01:29:08.058Z,4.80
2019-03-27T01:31:53.482Z,4.80
2019-03-27T01:34:39.112Z,4.80
2019-03-27T01:37:24.786Z,4.80
2019-03-27T01:40:10.177Z,4.80
2019-03-27T01:42:56.242Z,4.70
2019-03-27T01:45:52.363Z,4.70
2019-03-27T01:48:28.950Z,4.70
2019-03-27T01:51:14.195Z,4.70
2019-03-27T01:53:59.978Z,4.70
2019-03-27T01:56:45.761Z,4.80
2019-03-27T01:59:31.850Z,4.70
2019-03-27T02:02:17.734Z,4.70
2019-03-27T02:05:03.489Z,4.70
2019-03-27T02:07:49.396Z,4.70
2019-03-27T02:10:34.771Z,4.60
2019-03-27T02:13:20.243Z,4.60
2019-03-27T02:16:07.496Z,4.60
2019-03-27T02:18:53.334Z,4.60
2019-03-27T02:21:39.849Z,4.60
2019-03-27T02:24:25.511Z,4.70
2019-03-27T02:27:10.498Z,4.70
2019-03-27T02:29:55.962Z,4.60
2019-03-27T02:32:41.625Z,4.50
2019-03-27T02:35:27.507Z,4.50
2019-03-27T02:38:13.591Z,4.40
2019-03-27T02:40:58.754Z,4.40
2019-03-27T02:43:44.176Z,4.40
2019-03-27T02:46:29.592Z,4.30
2019-03-27T02:49:15.307Z,4.30
2019-03-27T02:52:00.857Z,4.30
2019-03-27T02:54:46.646Z,4.30
2019-03-27T02:57:31.826Z,4.30
2019-03-27T03:00:17.206Z,4.20
2019-03-27T03:03:02.681Z,4.20
2019-03-27T03:05:48.170Z,4.00
2019-03-27T03:08:34.214Z,3.90
2019-03-27T03:11:19.507Z,3.80
2019-03-27T03:14:04.800Z,3.80
2019-03-27T03:16:50.631Z,3.80
2019-03-27T03:19:36.132Z,3.80
2019-03-27T03:22:21.598Z,3.80
2019-03-27T03:25:08.262Z,3.80
2019-03-27T03:27:54.089Z,3.80
2019-03-27T03:30:39.651Z,3.70
2019-03-27T03:33:25.433Z,3.60
2019-03-27T03:36:10.991Z,3.50
2019-03-27T03:38:56.831Z,3.40
2019-03-27T03:41:42.250Z,3.40
2019-03-27T03:44:27.581Z,3.40
2019-03-27T03:47:13.143Z,3.40
2019-03-27T03:49:58.772Z,3.40
2019-03-27T03:52:46.027Z,3.40
2019-03-27T03:55:31.874Z,3.30
2019-03-27T03:58:17.855Z,3.30
2019-03-27T04:01:03.197Z,3.30
2019-03-27T04:03:49.086Z,3.30
2019-03-27T04:06:34.817Z,3.30
2019-03-27T04:09:20.194Z,3.20
2019-03-27T04:12:05.353Z,3.20
2019-03-27T04:14:51.208Z,3.20
2019-03-27T04:17:36.329Z,3.40
2019-03-27T04:20:22.253Z,3.40
2019-03-27T04:23:07.209Z,3.50
2019-03-27T04:26:08.785Z,3.60
2019-03-27T04:28:40.529Z,3.60
2019-03-27T04:31:26.117Z,3.60
2019-03-27T04:34:11.567Z,3.60
2019-03-27T04:36:57.038Z,3.60
2019-03-27T04:39:42.814Z,3.60
2019-03-27T04:42:28.700Z,3.50
2019-03-27T04:45:14.071Z,3.50
2019-03-27T04:48:00.262Z,3.50
2019-03-27T04:50:46.170Z,3.50
2019-03-27T04:53:31.326Z,3.50
2019-03-27T04:56:16.653Z,3.40
2019-03-27T04:59:02.259Z,3.40
2019-03-27T05:01:47.858Z,3.30
2019-03-27T05:04:33.713Z,3.40
2019-03-27T05:07:18.854Z,3.40
2019-03-27T05:10:04.381Z,3.40
2019-03-27T05:12:50.030Z,3.40
2019-03-27T05:15:35.506Z,3.40
2019-03-27T05:18:21.295Z,3.30
2019-03-27T05:21:07.270Z,3.20
2019-03-27T05:23:52.948Z,3.20
2019-03-27T05:26:38.442Z,3.20
2019-03-27T05:29:23.698Z,3.20
2019-03-27T05:32:09.678Z,3.10
2019-03-27T05:34:55.059Z,3.10
2019-03-27T05:37:40.454Z,3.10
2019-03-27T05:40:26.105Z,3.20
2019-03-27T05:43:11.258Z,3.30
2019-03-27T05:45:56.410Z,3.30
2019-03-27T05:48:42.251Z,3.40
2019-03-27T05:51:28.091Z,3.40
2019-03-27T05:54:13.594Z,3.50
2019-03-27T05:56:59.387Z,3.50
2019-03-27T05:59:45.448Z,3.50
2019-03-27T06:02:31.241Z,3.50
2019-03-27T06:05:18.342Z,3.50
2019-03-27T06:08:03.701Z,3.50
2019-03-27T06:10:49.579Z,3.50
2019-03-27T06:13:35.869Z,3.60
2019-03-27T06:16:21.347Z,3.60
2019-03-27T06:19:07.126Z,3.60
2019-03-27T06:21:53.006Z,3.60
2019-03-27T06:24:38.414Z,3.60
2019-03-27T06:27:24.000Z,3.60
2019-03-27T06:30:10.454Z,3.60
2019-03-27T06:32:55.810Z,3.60
2019-03-27T06:35:41.335Z,3.60
2019-03-27T06:41:55.871Z,3.70
2019-03-27T06:44:41.327Z,3.70
2019-03-27T06:47:27.094Z,3.70
2019-03-27T06:50:12.771Z,3.80
2019-03-27T06:52:58.610Z,3.90
2019-03-27T06:55:44.535Z,3.90
2019-03-27T06:58:30.518Z,3.90
2019-03-27T07:01:15.875Z,3.90
2019-03-27T07:04:10.314Z,4.00
2019-03-27T07:06:48.582Z,4.00
2019-03-27T07:09:33.883Z,4.10
2019-03-27T07:12:21.428Z,4.10
2019-03-27T07:15:07.042Z,4.10
2019-03-27T07:17:53.438Z,4.20
2019-03-27T07:20:41.058Z,4.20
2019-03-27T07:23:26.928Z,4.10
2019-03-27T07:26:12.930Z,4.10
2019-03-27T07:28:58.654Z,4.20
2019-03-27T07:31:43.783Z,4.30
2019-03-27T07:34:29.097Z,4.30
2019-03-27T07:37:14.502Z,4.30
2019-03-27T07:40:00.002Z,4.40
2019-03-27T07:42:45.354Z,4.50
2019-03-27T07:45:31.243Z,4.70
2019-03-27T07:48:16.634Z,4.70
2019-03-27T07:51:02.394Z,4.70
2019-03-27T07:53:47.725Z,4.80
2019-03-27T07:56:33.854Z,5.00
2019-03-27T07:59:19.942Z,5.10
2019-03-27T08:02:05.519Z,5.10
2019-03-27T08:04:51.452Z,5.20
2019-03-27T08:07:37.591Z,5.30
2019-03-27T08:10:23.230Z,5.40
2019-03-27T08:13:08.683Z,5.40
2019-03-27T08:15:53.742Z,5.50
2019-03-27T08:18:39.947Z,5.50
2019-03-27T08:21:25.731Z,5.50
2019-03-27T08:24:11.044Z,5.60
2019-03-27T08:26:56.522Z,5.60
2019-03-27T08:29:41.655Z,5.70
2019-03-27T08:32:27.030Z,5.90
2019-03-27T08:35:12.939Z,6.20
2019-03-27T08:37:58.305Z,6.20
2019-03-27T08:40:44.018Z,6.40
2019-03-27T08:43:29.662Z,6.60
2019-03-27T08:46:15.652Z,6.70
2019-03-27T08:49:01.328Z,6.90
2019-03-27T08:51:47.519Z,7.00
2019-03-27T08:54:33.602Z,7.00
2019-03-27T08:57:18.766Z,7.20
2019-03-27T09:00:05.678Z,7.40
2019-03-27T09:02:51.458Z,7.70
2019-03-27T09:05:37.238Z,8.00
2019-03-27T09:08:22.982Z,8.20
2019-03-27T09:11:08.763Z,8.50
2019-03-27T09:13:54.802Z,8.60
2019-03-27T09:16:40.562Z,9.10
2019-03-27T09:19:35.637Z,9.50
2019-03-27T09:22:13.250Z,9.60
2019-03-27T09:24:59.338Z,9.70
2019-03-27T09:27:44.673Z,10.10
2019-03-27T09:30:30.491Z,10.50
2019-03-27T09:33:16.369Z,10.90
2019-03-27T09:36:01.954Z,10.90
2019-03-27T09:38:48.181Z,10.50
2019-03-27T09:41:33.495Z,10.20
2019-03-27T09:44:19.187Z,10.10
2019-03-27T09:47:05.071Z,9.90
2019-03-27T09:49:50.882Z,9.90
2019-03-27T09:52:36.003Z,9.60
2019-03-27T09:55:21.590Z,9.50
2019-03-27T09:58:07.988Z,9.40
2019-03-27T10:00:57.610Z,9.40
2019-03-27T10:03:42.702Z,9.30
2019-03-27T10:06:28.706Z,9.40
2019-03-27T10:09:14.238Z,9.60
2019-03-27T10:12:00.161Z,9.70
2019-03-27T10:14:47.572Z,9.70
2019-03-27T10:17:33.162Z,9.80
2019-03-27T10:20:18.667Z,10.10
2019-03-27T10:23:03.834Z,10.10
2019-03-27T10:25:49.378Z,9.70
2019-03-27T10:28:34.487Z,9.50
2019-03-27T10:31:20.130Z,9.40
2019-03-27T10:34:05.930Z,9.30
2019-03-27T10:36:51.703Z,9.40
2019-03-27T10:39:37.143Z,9.40
2019-03-27T10:42:22.878Z,9.40
2019-03-27T10:45:08.095Z,9.40
2019-03-27T10:47:53.522Z,9.70
2019-03-27T10:50:39.802Z,11.10
2019-03-27T10:53:24.891Z,11.50
2019-03-27T10:56:10.607Z,11.50
2019-03-27T10:58:55.637Z,11.20
2019-03-27T11:01:40.891Z,10.80
2019-03-27T11:04:27.026Z,10.10
2019-03-27T11:07:12.603Z,9.90
2019-03-27T11:09:58.179Z,9.80
2019-03-27T11:12:43.685Z,9.60
2019-03-27T11:15:29.228Z,9.20
2019-03-27T11:18:14.756Z,8.80
2019-03-27T11:21:00.926Z,8.70
2019-03-27T11:23:46.115Z,8.80
2019-03-27T11:26:31.834Z,8.70
2019-03-27T11:29:17.674Z,8.70
2019-03-27T11:32:03.599Z,8.70
2019-03-27T11:34:48.970Z,9.20
2019-03-27T11:37:34.447Z,9.60
2019-03-27T11:40:20.151Z,9.70
2019-03-27T11:43:05.430Z,9.40
2019-03-27T11:45:51.380Z,8.90
2019-03-27T11:48:36.522Z,8.70
2019-03-27T11:51:22.376Z,8.60
2019-03-27T11:54:07.799Z,8.60
2019-03-27T11:56:53.290Z,8.90
2019-03-27T11:59:52.866Z,9.50
2019-03-27T12:02:26.373Z,10.50
2019-03-27T12:05:11.735Z,11.10
2019-03-27T12:07:57.931Z,11.20
2019-03-27T12:10:43.570Z,10.80
2019-03-27T12:13:29.591Z,11.80
2019-03-27T12:16:14.904Z,13.60
2019-03-27T12:19:00.638Z,13.60
2019-03-27T12:21:46.266Z,12.50
2019-03-27T12:24:31.946Z,11.60
2019-03-27T12:27:17.782Z,11.20
2019-03-27T12:30:03.794Z,11.50
2019-03-27T12:32:49.850Z,11.00
2019-03-27T12:35:35.322Z,11.80
2019-03-27T12:38:20.678Z,13.10
2019-03-27T12:41:06.370Z,13.70
2019-03-27T12:43:51.564Z,13.40
2019-03-27T12:46:37.218Z,12.30
2019-03-27T12:49:22.838Z,11.80
2019-03-27T12:52:08.370Z,11.10
2019-03-27T12:54:53.726Z,10.80
2019-03-27T12:57:38.999Z,10.40
2019-03-27T13:00:24.408Z,10.10
2019-03-27T13:03:10.164Z,9.80
2019-03-27T13:05:55.201Z,9.80
2019-03-27T13:08:40.738Z,9.90
2019-03-27T13:11:26.006Z,9.80
2019-03-27T13:14:11.366Z,9.90
2019-03-27T13:16:56.711Z,10.10
2019-03-27T13:19:42.796Z,10.20
2019-03-27T13:22:28.783Z,10.30
2019-03-27T13:25:14.767Z,10.40
2019-03-27T13:28:00.458Z,10.30
2019-03-27T13:30:46.331Z,10.30
2019-03-27T13:33:31.890Z,10.30
2019-03-27T13:36:17.436Z,10.40
2019-03-27T13:39:04.450Z,10.50
2019-03-27T13:41:49.963Z,10.60
2019-03-27T13:44:37.245Z,10.80
2019-03-27T13:47:22.966Z,10.90
2019-03-27T13:50:08.518Z,10.60
2019-03-27T13:52:54.007Z,10.60
2019-03-27T13:55:39.423Z,10.60
2019-03-27T13:58:24.789Z,10.60
2019-03-27T14:01:12.946Z,10.50
2019-03-27T14:03:57.947Z,10.50
2019-03-27T14:06:44.724Z,10.30
2019-03-27T14:09:30.669Z,10.20
2019-03-27T14:12:16.618Z,10.10
2019-03-27T14:15:02.327Z,10.10
2019-03-27T14:17:47.613Z,10.20
2019-03-27T14:20:32.856Z,10.40
2019-03-27T14:23:18.454Z,10.50
2019-03-27T14:26:03.770Z,10.60
2019-03-27T14:28:48.906Z,10.30
2019-03-27T14:31:34.931Z,10.50
2019-03-27T14:34:20.616Z,10.60
2019-03-27T14:37:06.071Z,10.70
2019-03-27T14:39:51.372Z,10.80
2019-03-27T14:42:36.559Z,10.80
2019-03-27T14:45:22.402Z,10.60
2019-03-27T14:48:08.391Z,10.70
2019-03-27T14:50:53.962Z,10.90
2019-03-27T14:53:39.335Z,10.80
2019-03-27T14:56:24.786Z,10.80
2019-03-27T14:59:10.182Z,10.90
2019-03-27T15:01:55.669Z,10.80
2019-03-27T15:04:41.738Z,10.90
2019-03-27T15:07:27.418Z,10.90
2019-03-27T15:10:13.183Z,10.70
2019-03-27T15:12:58.571Z,10.70
2019-03-27T15:15:44.714Z,10.80
2019-03-27T15:18:31.054Z,10.90
2019-03-27T15:21:16.463Z,11.00
2019-03-27T15:24:02.139Z,11.20
2019-03-27T15:26:47.523Z,11.10
2019-03-27T15:29:33.146Z,11.00
2019-03-27T15:32:19.343Z,11.10
2019-03-27T15:35:04.595Z,11.10
2019-03-27T15:37:49.846Z,11.10
2019-03-27T15:40:44.763Z,11.10
2019-03-27T15:43:30.182Z,11.10
2019-03-27T15:46:15.707Z,11.10
2019-03-27T15:49:01.314Z,11.20
2019-03-27T15:51:46.555Z,11.20
2019-03-27T15:54:32.274Z,10.90
2019-03-27T15:57:18.014Z,10.70
2019-03-27T16:00:03.324Z,10.60
2019-03-27T16:02:49.066Z,10.60
2019-03-27T16:05:34.215Z,10.60
2019-03-27T16:08:19.959Z,10.60
2019-03-27T16:11:05.344Z,10.60
2019-03-27T16:13:51.198Z,10.60
2019-03-27T16:16:37.046Z,10.50
2019-03-27T16:19:22.622Z,10.50
2019-03-27T16:22:08.509Z,10.60
2019-03-27T16:24:54.494Z,10.60
2019-03-27T16:27:39.699Z,10.60
2019-03-27T16:30:24.942Z,10.50
2019-03-27T16:33:10.710Z,10.30
2019-03-27T16:35:57.207Z,10.10
2019-03-27T16:38:42.779Z,10.00
2019-03-27T16:41:28.217Z,9.90
2019-03-27T16:44:13.935Z,9.80
2019-03-27T16:46:59.818Z,9.70
2019-03-27T16:49:45.347Z,9.60
2019-03-27T16:52:30.967Z,9.60
2019-03-27T16:55:16.871Z,9.60
2019-03-27T16:58:02.327Z,9.60
2019-03-27T17:00:47.899Z,9.50
2019-03-27T17:03:34.206Z,9.50
2019-03-27T17:06:19.562Z,9.40
2019-03-27T17:09:05.693Z,9.30
2019-03-27T17:11:51.495Z,9.30
2019-03-27T17:14:36.607Z,9.30
2019-03-27T17:17:22.683Z,9.20
2019-03-27T17:20:07.750Z,9.20
2019-03-27T17:22:53.650Z,9.20
2019-03-27T17:25:39.095Z,9.20
2019-03-27T17:28:24.750Z,9.10
2019-03-27T17:31:10.411Z,9.20
2019-03-27T17:33:56.338Z,9.10
2019-03-27T17:36:41.390Z,9.00
2019-03-27T17:39:26.896Z,8.80
2019-03-27T17:42:12.283Z,8.70
2019-03-27T17:44:57.863Z,8.70
2019-03-27T17:47:43.118Z,8.70
2019-03-27T17:50:28.670Z,8.70
2019-03-27T17:53:14.554Z,8.70
2019-03-27T17:56:00.337Z,8.70
2019-03-27T17:58:46.011Z,8.70
2019-03-27T18:01:31.519Z,8.50
2019-03-27T18:04:17.229Z,8.40
2019-03-27T18:07:03.154Z,8.30
2019-03-27T18:09:48.474Z,8.30
2019-03-27T18:12:33.642Z,8.20
2019-03-27T18:15:19.282Z,8.20
2019-03-27T18:18:04.322Z,8.10
2019-03-27T18:20:50.007Z,8.10
2019-03-27T18:23:45.819Z,8.10
2019-03-27T18:26:23.615Z,8.00
2019-03-27T18:29:08.946Z,7.90
2019-03-27T18:31:54.558Z,7.80
2019-03-27T18:34:40.034Z,7.80
2019-03-27T18:37:25.736Z,7.80
2019-03-27T18:40:11.387Z,7.80
2019-03-27T18:42:57.272Z,7.80
2019-03-27T18:45:42.667Z,7.80
2019-03-27T18:48:28.422Z,7.80
2019-03-27T18:51:14.288Z,7.80
2019-03-27T18:54:00.295Z,7.80
2019-03-27T18:56:45.422Z,7.80
2019-03-27T18:59:31.751Z,7.70
2019-03-27T19:02:17.838Z,7.70
2019-03-27T19:05:03.722Z,7.70
2019-03-27T19:07:49.270Z,7.70
2019-03-27T19:10:34.875Z,7.70
2019-03-27T19:13:20.591Z,7.70
2019-03-27T19:16:08.986Z,7.80
2019-03-27T19:18:54.504Z,7.80
2019-03-27T19:21:40.450Z,7.80
2019-03-27T19:24:26.303Z,7.80
2019-03-27T19:27:12.010Z,7.80
2019-03-27T19:29:57.486Z,7.80
2019-03-27T19:32:43.122Z,7.80
2019-03-27T19:35:28.844Z,7.70
2019-03-27T19:38:14.622Z,7.70
2019-03-27T19:41:00.779Z,7.60
2019-03-27T19:43:45.837Z,7.60
2019-03-27T19:46:31.966Z,7.50
2019-03-27T19:49:17.122Z,7.50
2019-03-27T19:52:02.566Z,7.50
2019-03-27T19:54:47.991Z,7.50
2019-03-27T19:57:33.727Z,7.50
2019-03-27T20:00:20.257Z,7.50
2019-03-27T20:03:05.714Z,7.50
2019-03-27T20:05:51.714Z,7.50
2019-03-27T20:08:37.517Z,7.40
2019-03-27T20:11:22.719Z,7.30
2019-03-27T20:14:08.486Z,7.30
2019-03-27T20:16:54.222Z,7.30
2019-03-27T20:19:40.510Z,7.20
2019-03-27T20:22:25.730Z,7.20
2019-03-27T20:25:11.352Z,7.20
2019-03-27T20:27:59.282Z,7.20
2019-03-27T20:30:44.990Z,7.20
2019-03-27T20:33:30.158Z,7.10
2019-03-27T20:36:15.910Z,7.10
2019-03-27T20:39:01.523Z,7.10
2019-03-27T20:41:47.130Z,7.00
2019-03-27T20:44:32.460Z,7.10
2019-03-27T20:47:18.210Z,7.00
2019-03-27T20:50:04.047Z,7.00
2019-03-27T20:52:49.160Z,6.90
2019-03-27T20:55:35.172Z,6.90
2019-03-27T20:58:20.722Z,6.90
2019-03-27T21:01:05.902Z,6.80
2019-03-27T21:03:51.291Z,6.80
2019-03-27T21:06:37.046Z,6.80
2019-03-27T21:09:22.971Z,6.70
2019-03-27T21:12:08.310Z,6.70
2019-03-27T21:14:53.817Z,6.70
2019-03-27T21:17:39.650Z,6.60
2019-03-27T21:20:24.978Z,6.70
2019-03-27T21:23:10.698Z,6.70
2019-03-27T21:25:56.615Z,6.70
2019-03-27T21:28:42.016Z,6.70
2019-03-27T21:31:26.946Z,6.70
2019-03-27T21:34:12.393Z,6.70
2019-03-27T21:36:58.506Z,6.70
2019-03-27T21:39:43.959Z,6.70
2019-03-27T21:42:29.935Z,6.70
2019-03-27T21:45:15.402Z,6.70
2019-03-27T21:48:01.030Z,6.70
2019-03-27T21:50:46.907Z,6.70
2019-03-27T21:53:32.291Z,6.70
2019-03-27T21:56:18.229Z,6.70
2019-03-27T21:59:03.254Z,6.60
2019-03-27T22:01:48.602Z,6.60
2019-03-27T22:04:34.489Z,6.60
2019-03-27T22:07:19.551Z,6.50
2019-03-27T22:10:05.615Z,6.60
2019-03-27T22:12:50.790Z,6.60
2019-03-27T22:15:36.787Z,6.60
2019-03-27T22:18:22.423Z,6.60
2019-03-27T22:21:08.202Z,6.60
2019-03-27T22:23:53.880Z,6.70
2019-03-27T22:26:39.762Z,6.70
2019-03-27T22:29:25.386Z,6.70
2019-03-27T22:32:11.422Z,6.70
2019-03-27T22:34:56.743Z,6.70
2019-03-27T22:37:42.113Z,6.70
2019-03-27T22:40:27.307Z,6.70
2019-03-27T22:43:13.040Z,6.70
2019-03-27T22:45:58.794Z,6.60
2019-03-27T22:48:44.218Z,6.60
2019-03-27T22:51:30.151Z,6.60
2019-03-27T22:54:15.438Z,6.60
2019-03-27T22:57:01.402Z,6.60
2019-03-27T22:59:46.994Z,6.60
2019-03-27T23:02:32.295Z,6.50
2019-03-27T23:05:17.826Z,6.60
2019-03-27T23:08:03.082Z,6.50
2019-03-27T23:10:49.177Z,6.50
2019-03-27T23:13:34.654Z,6.50
2019-03-27T23:16:20.238Z,6.50
2019-03-27T23:19:06.075Z,6.50
2019-03-27T23:21:51.538Z,6.40
2019-03-27T23:24:37.307Z,6.40
2019-03-27T23:27:23.459Z,6.40
2019-03-27T23:30:08.614Z,6.40
2019-03-27T23:32:54.378Z,6.30
2019-03-27T23:35:39.839Z,6.40
2019-03-27T23:38:25.550Z,6.40
2019-03-27T23:41:11.841Z,6.40
2019-03-27T23:43:57.261Z,6.30
2019-03-27T23:46:42.558Z,6.30
2019-03-27T23:49:28.274Z,6.20
2019-03-27T23:52:14.050Z,6.20
2019-03-27T23:55:00.340Z,6.20
2019-03-27T23:57:46.119Z,6.20
